createdAt,value
2022-10-10T00:02:20.627Z,7.05
2022-10-10T00:04:55.719Z,6.90
2022-10-10T00:07:27.749Z,7.53
2022-10-10T00:09:59.917Z,7.40
2022-10-10T00:12:32.402Z,7.97
2022-10-10T00:15:05.026Z,7.65
2022-10-10T00:17:37.534Z,8.18
2022-10-10T00:20:15.668Z,7.60
2022-10-10T00:22:49.995Z,7.53
2022-10-10T00:25:22.125Z,7.88
2022-10-10T00:27:54.162Z,8.15
2022-10-10T00:30:26.239Z,8.95
2022-10-10T00:32:59.853Z,7.50
2022-10-10T00:35:32.140Z,8.00
2022-10-10T00:38:05.015Z,8.65
2022-10-10T00:40:46.132Z,7.85
2022-10-10T00:43:21.933Z,7.85
2022-10-10T00:45:55.291Z,8.43
2022-10-10T00:48:35.156Z,8.93
2022-10-10T00:51:14.510Z,8.00
2022-10-10T00:53:56.275Z,8.60
2022-10-10T00:56:39.606Z,8.20
2022-10-10T00:59:17.943Z,8.98
2022-10-10T01:01:50.744Z,8.40
2022-10-10T01:04:48.935Z,8.15
2022-10-10T01:07:27.277Z,8.02
2022-10-10T01:10:15.622Z,9.63
2022-10-10T01:13:20.780Z,9.55
2022-10-10T01:16:35.425Z,9.27
2022-10-10T01:19:58.061Z,8.38
2022-10-10T01:23:26.932Z,8.48
2022-10-10T01:26:27.425Z,8.32
2022-10-10T01:29:17.803Z,8.40
2022-10-10T01:32:09.882Z,7.95
2022-10-10T01:35:32.934Z,8.20
2022-10-10T01:38:36.248Z,7.93
2022-10-10T01:41:32.457Z,8.85
2022-10-10T01:44:14.741Z,7.93
2022-10-10T01:46:46.769Z,7.90
2022-10-10T01:49:20.299Z,8.40
2022-10-10T01:52:17.731Z,8.00
2022-10-10T01:55:24.555Z,8.30
2022-10-10T01:58:27.372Z,7.90
2022-10-10T02:01:57.351Z,7.63
2022-10-10T02:04:56.847Z,8.20
2022-10-10T02:07:43.451Z,8.00
2022-10-10T02:10:29.451Z,8.48
2022-10-10T02:13:06.159Z,7.10
2022-10-10T02:15:50.157Z,8.40
2022-10-10T02:18:29.627Z,8.57
2022-10-10T02:21:06.665Z,8.02
2022-10-10T02:23:42.241Z,7.70
2022-10-10T02:26:18.748Z,7.65
2022-10-10T02:29:06.315Z,8.30
2022-10-10T02:31:49.602Z,7.78
2022-10-10T02:34:35.873Z,9.23
2022-10-10T02:37:14.000Z,8.07
2022-10-10T02:39:51.984Z,7.45
2022-10-10T02:42:29.572Z,8.35
2022-10-10T02:45:03.075Z,8.25
2022-10-10T02:47:35.775Z,8.60
2022-10-10T02:50:08.180Z,8.20
2022-10-10T02:52:40.640Z,8.25
2022-10-10T02:55:12.807Z,7.88
2022-10-10T02:57:44.773Z,8.82
2022-10-10T03:00:17.509Z,8.23
2022-10-10T03:02:50.048Z,8.05
2022-10-10T03:05:22.202Z,8.68
2022-10-10T03:07:54.106Z,8.10
2022-10-10T03:10:26.207Z,8.88
2022-10-10T03:12:58.240Z,9.25
2022-10-10T03:15:30.613Z,8.90
2022-10-10T03:18:02.535Z,8.50
2022-10-10T03:20:34.531Z,8.73
2022-10-10T03:23:06.449Z,8.32
2022-10-10T03:25:45.298Z,8.80
2022-10-10T03:28:17.309Z,9.18
2022-10-10T03:30:49.441Z,9.48
2022-10-10T03:33:22.011Z,9.05
2022-10-10T03:35:54.006Z,9.25
2022-10-10T03:38:26.000Z,9.50
2022-10-10T03:40:57.947Z,8.52
2022-10-10T03:43:29.880Z,8.95
2022-10-10T03:46:02.254Z,8.15
2022-10-10T03:48:34.564Z,9.27
2022-10-10T03:51:06.910Z,9.68
2022-10-10T03:53:39.239Z,9.68
2022-10-10T03:56:11.374Z,9.38
2022-10-10T03:58:43.437Z,9.38
2022-10-10T04:01:15.683Z,9.57
2022-10-10T04:03:51.868Z,10.52
2022-10-10T04:06:24.321Z,9.80
2022-10-10T04:08:56.366Z,10.40
2022-10-10T04:11:28.368Z,9.38
2022-10-10T04:14:00.641Z,9.23
2022-10-10T04:16:32.865Z,9.98
2022-10-10T04:19:04.918Z,9.88
2022-10-10T04:21:37.003Z,9.98
2022-10-10T04:24:09.267Z,9.63
2022-10-10T04:26:41.464Z,11.05
2022-10-10T04:29:13.497Z,9.48
2022-10-10T04:31:45.487Z,10.23
2022-10-10T04:34:17.447Z,10.52
2022-10-10T04:36:49.411Z,10.00
2022-10-10T04:39:22.257Z,9.95
2022-10-10T04:41:54.397Z,10.48
2022-10-10T04:44:26.368Z,10.13
2022-10-10T04:46:58.446Z,9.57
2022-10-10T04:49:30.571Z,10.38
2022-10-10T04:52:02.558Z,9.60
2022-10-10T04:54:41.225Z,9.50
2022-10-10T04:57:19.672Z,9.32
2022-10-10T04:59:52.904Z,9.82
2022-10-10T05:02:24.973Z,9.48
2022-10-10T05:04:57.056Z,10.20
2022-10-10T05:07:29.119Z,9.63
2022-10-10T05:10:01.339Z,9.70
2022-10-10T05:12:33.711Z,9.50
2022-10-10T05:15:06.253Z,9.65
2022-10-10T05:17:38.462Z,9.98
2022-10-10T05:20:11.140Z,9.82
2022-10-10T05:22:43.252Z,9.50
2022-10-10T05:25:15.626Z,10.52
2022-10-10T05:27:47.640Z,10.00
2022-10-10T05:30:19.628Z,9.35
2022-10-10T05:32:51.703Z,10.45
2022-10-10T05:35:23.971Z,9.88
2022-10-10T05:37:56.222Z,10.13
2022-10-10T05:40:28.525Z,9.25
2022-10-10T05:43:00.619Z,9.88
2022-10-10T05:45:32.571Z,11.05
2022-10-10T05:48:04.656Z,10.48
2022-10-10T05:50:45.710Z,10.05
2022-10-10T05:53:22.218Z,9.48
2022-10-10T05:55:55.228Z,10.00
2022-10-10T05:58:27.559Z,11.07
2022-10-10T06:01:05.105Z,10.20
2022-10-10T06:03:38.588Z,10.63
2022-10-10T06:06:10.629Z,10.77
2022-10-10T06:08:42.525Z,10.20
2022-10-10T06:11:17.281Z,10.90
2022-10-10T06:13:54.096Z,11.57
2022-10-10T06:16:27.898Z,10.68
2022-10-10T06:18:59.875Z,11.43
2022-10-10T06:21:32.345Z,10.18
2022-10-10T06:24:04.434Z,11.30
2022-10-10T06:26:37.129Z,11.07
2022-10-10T06:29:09.059Z,11.23
2022-10-10T06:31:41.294Z,10.40
2022-10-10T06:34:13.286Z,10.52
2022-10-10T06:36:45.292Z,10.15
2022-10-10T06:39:20.049Z,11.55
2022-10-10T06:41:51.987Z,10.75
2022-10-10T06:44:24.026Z,10.13
2022-10-10T06:46:56.248Z,9.90
2022-10-10T06:49:29.484Z,10.60
2022-10-10T06:52:01.594Z,10.20
2022-10-10T06:54:34.049Z,10.05
2022-10-10T06:57:07.105Z,10.00
2022-10-10T06:59:39.183Z,10.60
2022-10-10T07:02:14.103Z,8.98
2022-10-10T07:04:46.058Z,10.45
2022-10-10T07:07:17.980Z,9.52
2022-10-10T07:09:49.963Z,10.70
2022-10-10T07:12:22.031Z,10.68
2022-10-10T07:14:53.969Z,10.15
2022-10-10T07:17:25.974Z,9.52
2022-10-10T07:19:58.507Z,10.30
2022-10-10T07:22:30.625Z,9.75
2022-10-10T07:25:02.837Z,10.13
2022-10-10T07:27:35.257Z,9.88
2022-10-10T07:30:07.725Z,9.60
2022-10-10T07:32:40.126Z,9.65
2022-10-10T07:35:12.550Z,10.07
2022-10-10T07:37:45.200Z,9.48
2022-10-10T07:40:17.304Z,9.35
2022-10-10T07:42:49.549Z,9.88
2022-10-10T07:45:21.733Z,10.23
2022-10-10T07:47:54.317Z,9.23
2022-10-10T07:50:26.423Z,9.48
2022-10-10T07:52:58.440Z,9.57
2022-10-10T07:55:30.628Z,9.70
2022-10-10T07:58:03.942Z,10.10
2022-10-10T08:00:36.551Z,9.70
2022-10-10T08:03:12.511Z,8.43
2022-10-10T08:05:47.010Z,8.55
2022-10-10T08:08:19.051Z,8.75
2022-10-10T08:10:51.186Z,9.25
2022-10-10T08:13:23.247Z,9.40
2022-10-10T08:15:56.643Z,9.90
2022-10-10T08:18:29.032Z,9.00
2022-10-10T08:21:02.929Z,8.95
2022-10-10T08:23:38.494Z,8.70
2022-10-10T08:26:13.328Z,8.30
2022-10-10T08:28:48.509Z,8.55
2022-10-10T08:31:22.238Z,7.75
2022-10-10T08:33:56.750Z,8.35
2022-10-10T08:36:28.981Z,9.20
2022-10-10T08:39:01.633Z,8.43
2022-10-10T08:41:53.325Z,8.48
2022-10-10T08:44:40.267Z,8.68
2022-10-10T08:47:21.331Z,8.00
2022-10-10T08:50:12.046Z,8.77
2022-10-10T08:52:57.581Z,8.52
2022-10-10T08:55:38.057Z,7.65
2022-10-10T08:58:26.173Z,7.05
2022-10-10T09:01:11.218Z,7.50
2022-10-10T09:03:53.224Z,8.25
2022-10-10T09:06:56.097Z,6.35
2022-10-10T09:10:09.593Z,6.20
2022-10-10T09:13:35.923Z,5.00
2022-10-10T09:16:32.239Z,5.38
2022-10-10T09:19:40.896Z,6.18
2022-10-10T09:22:38.752Z,5.97
2022-10-10T09:25:27.655Z,5.30
2022-10-10T09:28:16.941Z,6.53
2022-10-10T09:31:01.832Z,5.20
2022-10-10T09:33:44.006Z,5.95
2022-10-10T09:36:32.819Z,5.57
2022-10-10T09:39:22.608Z,5.30
2022-10-10T09:42:13.636Z,5.27
2022-10-10T09:44:49.349Z,5.00
2022-10-10T09:47:22.271Z,4.93
2022-10-10T09:49:54.963Z,5.33
2022-10-10T09:52:31.838Z,4.70
2022-10-10T09:55:30.022Z,4.13
2022-10-10T09:58:31.328Z,4.67
2022-10-10T10:01:29.216Z,3.90
2022-10-10T10:04:26.906Z,4.70
2022-10-10T10:07:18.474Z,3.67
2022-10-10T10:10:02.626Z,3.43
2022-10-10T10:12:54.600Z,3.77
2022-10-10T10:15:30.564Z,3.07
2022-10-10T10:18:21.590Z,4.73
2022-10-10T10:21:03.040Z,4.40
2022-10-10T10:23:51.936Z,4.63
2022-10-10T10:26:42.509Z,5.13
2022-10-10T10:29:28.585Z,5.43
2022-10-10T10:32:32.044Z,6.10
2022-10-10T10:35:46.755Z,5.80
2022-10-10T10:38:48.460Z,6.03
2022-10-10T10:41:55.996Z,6.30
2022-10-10T10:44:51.050Z,7.20
2022-10-10T10:47:54.920Z,5.73
2022-10-10T10:51:13.443Z,5.03
2022-10-10T10:54:14.262Z,5.70
2022-10-10T10:57:40.876Z,5.23
2022-10-10T11:01:21.137Z,4.87
2022-10-10T11:05:17.912Z,4.37
2022-10-10T11:07:17.251Z,4.10
2022-10-10T11:09:59.558Z,3.83
2022-10-10T11:13:06.576Z,3.63
2022-10-10T11:16:13.471Z,2.47
2022-10-10T11:19:24.098Z,2.93
2022-10-10T11:22:21.332Z,3.10
2022-10-10T11:25:13.252Z,2.67
2022-10-10T11:27:57.586Z,3.00
2022-10-10T11:30:44.693Z,2.90
2022-10-10T11:33:32.418Z,3.00
2022-10-10T11:36:20.225Z,2.57
2022-10-10T11:39:05.549Z,2.90
2022-10-10T11:42:16.175Z,2.80
2022-10-10T11:45:05.116Z,3.40
2022-10-10T11:48:27.727Z,2.80
2022-10-10T11:52:09.449Z,3.30
2022-10-10T11:58:56.698Z,3.00
2022-10-10T12:01:47.763Z,2.87
2022-10-10T12:04:23.575Z,2.90
2022-10-10T12:07:14.972Z,2.80
2022-10-10T12:10:18.682Z,3.97
2022-10-10T12:13:31.522Z,2.83
2022-10-10T12:19:26.790Z,3.63
2022-10-10T12:22:06.027Z,4.30
2022-10-10T12:25:56.543Z,3.03
2022-10-10T12:28:58.059Z,3.67
2022-10-10T12:31:40.422Z,3.23
2022-10-10T12:34:36.647Z,3.17
2022-10-10T12:37:59.778Z,3.50
2022-10-10T12:41:10.464Z,3.50
2022-10-10T12:47:16.340Z,3.40
2022-10-10T12:49:56.098Z,3.73
2022-10-10T12:52:36.053Z,3.10
2022-10-10T12:55:49.884Z,3.73
2022-10-10T12:58:42.275Z,3.20
2022-10-10T13:01:33.961Z,3.53
2022-10-10T13:04:17.924Z,3.80
2022-10-10T13:06:54.361Z,3.00
2022-10-10T13:09:35.765Z,3.50
2022-10-10T13:12:22.709Z,3.50
2022-10-10T13:14:58.252Z,3.40
2022-10-10T13:17:36.406Z,3.33
2022-10-10T13:20:37.134Z,3.07
2022-10-10T13:23:14.486Z,3.60
2022-10-10T13:25:46.730Z,3.57
2022-10-10T13:28:29.899Z,3.50
2022-10-10T13:31:02.420Z,3.40
2022-10-10T13:33:35.695Z,3.97
2022-10-10T13:36:17.802Z,3.77
2022-10-10T13:38:52.067Z,3.23
2022-10-10T13:41:27.042Z,3.67
2022-10-10T13:43:59.352Z,3.27
2022-10-10T13:46:34.017Z,3.20
2022-10-10T13:49:21.284Z,3.23
2022-10-10T13:52:21.204Z,3.47
2022-10-10T13:54:54.641Z,3.47
2022-10-10T13:57:47.842Z,3.90
2022-10-10T14:00:24.559Z,3.33
2022-10-10T14:02:58.272Z,3.53
2022-10-10T14:05:32.236Z,3.30
2022-10-10T14:08:04.377Z,3.10
2022-10-10T14:10:37.742Z,3.33
2022-10-10T14:13:17.434Z,3.97
2022-10-10T14:15:49.890Z,3.50
2022-10-10T14:18:24.519Z,3.50
2022-10-10T14:20:56.758Z,2.80
2022-10-10T14:23:28.740Z,3.40
2022-10-10T14:26:01.056Z,4.07
2022-10-10T14:28:35.035Z,3.60
2022-10-10T14:31:09.601Z,3.57
2022-10-10T14:33:42.374Z,4.47
2022-10-10T14:36:14.501Z,3.10
2022-10-10T14:38:46.443Z,3.83
2022-10-10T14:41:18.482Z,3.70
2022-10-10T14:43:50.413Z,3.53
2022-10-10T14:46:22.530Z,3.53
2022-10-10T14:48:55.353Z,3.83
2022-10-10T14:51:33.612Z,3.33
2022-10-10T14:54:10.038Z,3.33
2022-10-10T14:57:08.724Z,3.50
2022-10-10T14:59:47.685Z,4.00
2022-10-10T15:02:22.701Z,3.90
2022-10-10T15:04:54.902Z,3.93
2022-10-10T15:07:27.023Z,3.40
2022-10-10T15:12:51.880Z,3.57
2022-10-10T15:15:23.967Z,4.00
2022-10-10T15:17:58.234Z,3.50
2022-10-10T15:20:31.189Z,3.97
2022-10-10T15:23:06.859Z,3.77
2022-10-10T15:25:44.528Z,3.60
2022-10-10T15:28:17.808Z,4.17
2022-10-10T15:30:52.670Z,4.43
2022-10-10T15:33:25.521Z,5.30
2022-10-10T15:36:11.480Z,5.53
2022-10-10T15:38:45.101Z,5.33
2022-10-10T15:41:17.406Z,4.37
2022-10-10T15:43:54.501Z,4.67
2022-10-10T15:46:29.022Z,4.50
2022-10-10T15:49:04.206Z,4.43
2022-10-10T15:51:36.783Z,4.70
2022-10-10T15:54:09.454Z,4.00
2022-10-10T15:56:41.987Z,4.00
2022-10-10T15:59:14.039Z,4.37
2022-10-10T16:01:46.193Z,3.90
2022-10-10T16:04:18.436Z,4.30
2022-10-10T16:06:59.338Z,4.67
2022-10-10T16:09:38.677Z,3.70
2022-10-10T16:12:10.973Z,3.87
2022-10-10T16:14:43.247Z,3.50
2022-10-10T16:17:17.544Z,3.50
2022-10-10T16:19:53.588Z,3.70
2022-10-10T16:22:26.717Z,4.20
2022-10-10T16:27:53.031Z,3.87
2022-10-10T16:30:25.444Z,3.90
2022-10-10T16:32:59.409Z,4.00
2022-10-10T16:35:36.365Z,3.70
2022-10-10T16:38:08.601Z,3.93
2022-10-10T16:40:40.830Z,3.93
2022-10-10T16:43:13.120Z,3.57
2022-10-10T16:45:45.947Z,3.90
2022-10-10T16:48:18.266Z,4.10
2022-10-10T16:50:50.558Z,3.50
2022-10-10T16:53:22.697Z,4.10
2022-10-10T16:56:01.613Z,4.60
2022-10-10T16:58:38.394Z,5.03
2022-10-10T17:01:22.080Z,5.47
2022-10-10T17:04:02.432Z,5.30
2022-10-10T17:06:37.987Z,5.00
2022-10-10T17:09:11.545Z,4.17
2022-10-10T17:11:49.243Z,4.80
2022-10-10T17:14:23.316Z,4.97
2022-10-10T17:17:12.786Z,4.37
2022-10-10T17:19:49.342Z,4.73
2022-10-10T17:22:24.563Z,5.20
2022-10-10T17:24:57.333Z,4.13
2022-10-10T17:27:29.664Z,5.20
2022-10-10T17:30:02.646Z,6.93
2022-10-10T17:32:36.742Z,5.97
2022-10-10T17:35:13.477Z,6.60
2022-10-10T17:37:46.163Z,5.80
2022-10-10T17:40:24.075Z,5.30
2022-10-10T17:43:02.570Z,4.57
2022-10-10T17:46:21.615Z,5.17
2022-10-10T17:49:11.007Z,4.10
2022-10-10T17:51:44.356Z,3.90
2022-10-10T17:54:16.823Z,3.97
2022-10-10T17:56:50.296Z,4.67
2022-10-10T17:59:22.595Z,4.57
2022-10-10T18:01:55.131Z,3.83
2022-10-10T18:04:27.287Z,4.40
2022-10-10T18:06:59.413Z,3.83
2022-10-10T18:09:31.870Z,4.50
2022-10-10T18:12:04.572Z,4.57
2022-10-10T18:14:38.377Z,4.73
2022-10-10T18:17:11.105Z,4.60
2022-10-10T18:19:43.999Z,4.90
2022-10-10T18:22:16.928Z,4.70
2022-10-10T18:24:49.534Z,3.27
2022-10-10T18:27:22.274Z,2.90
2022-10-10T18:29:55.057Z,3.33
2022-10-10T18:32:28.216Z,3.28
2022-10-10T18:35:01.304Z,2.60
2022-10-10T18:37:36.441Z,2.15
2022-10-10T18:40:09.993Z,2.72
2022-10-10T18:42:43.458Z,2.63
2022-10-10T18:45:16.026Z,2.50
2022-10-10T18:47:48.342Z,2.40
2022-10-10T18:50:22.111Z,2.30
2022-10-10T18:53:02.897Z,2.33
2022-10-10T18:55:37.667Z,3.00
2022-10-10T18:58:50.529Z,2.30
2022-10-10T19:01:42.247Z,2.67
2022-10-10T19:04:24.742Z,2.63
2022-10-10T19:07:03.864Z,2.97
2022-10-10T19:09:41.189Z,3.13
2022-10-10T19:12:17.623Z,3.45
2022-10-10T19:14:52.043Z,3.42
2022-10-10T19:17:24.517Z,3.50
2022-10-10T19:19:56.627Z,3.80
2022-10-10T19:22:29.171Z,5.57
2022-10-10T19:25:02.953Z,4.32
2022-10-10T19:27:35.953Z,4.07
2022-10-10T19:30:10.985Z,3.80
2022-10-10T19:32:50.637Z,3.83
2022-10-10T19:35:32.510Z,3.55
2022-10-10T19:38:14.007Z,4.07
2022-10-10T19:40:51.875Z,3.90
2022-10-10T19:43:27.681Z,2.83
2022-10-10T19:46:08.696Z,3.83
2022-10-10T19:48:45.509Z,4.05
2022-10-10T19:51:22.586Z,4.00
2022-10-10T19:53:57.034Z,4.25
2022-10-10T19:56:30.750Z,4.10
2022-10-10T19:59:06.896Z,5.25
2022-10-10T20:01:40.249Z,3.90
2022-10-10T20:04:13.201Z,4.75
2022-10-10T20:06:52.229Z,7.05
2022-10-10T20:09:29.896Z,5.20
2022-10-10T20:12:02.507Z,4.78
2022-10-10T20:14:36.101Z,4.97
2022-10-10T20:17:11.994Z,4.85
2022-10-10T20:19:52.600Z,5.10
2022-10-10T20:22:26.979Z,5.93
2022-10-10T20:25:05.167Z,5.68
2022-10-10T20:27:39.422Z,5.10
2022-10-10T20:30:13.471Z,5.10
2022-10-10T20:32:51.203Z,5.20
2022-10-10T20:35:24.510Z,5.50
2022-10-10T20:38:01.987Z,4.57
2022-10-10T20:40:40.615Z,4.75
2022-10-10T20:43:19.254Z,4.72
2022-10-10T20:45:54.777Z,4.90
2022-10-10T20:48:28.452Z,4.95
2022-10-10T20:51:13.010Z,4.50
2022-10-10T20:53:52.335Z,4.63
2022-10-10T20:56:37.085Z,6.50
2022-10-10T20:59:17.927Z,5.72
2022-10-10T21:01:56.870Z,6.35
2022-10-10T21:04:29.737Z,6.13
2022-10-10T21:07:04.393Z,5.72
2022-10-10T21:09:40.109Z,5.65
2022-10-10T21:12:15.149Z,5.45
2022-10-10T21:14:52.368Z,5.28
2022-10-10T21:17:44.149Z,5.55
2022-10-10T21:20:24.150Z,6.03
2022-10-10T21:22:59.334Z,6.10
2022-10-10T21:25:38.086Z,5.47
2022-10-10T21:28:10.560Z,5.22
2022-10-10T21:30:53.442Z,5.75
2022-10-10T21:33:25.479Z,5.55
2022-10-10T21:35:58.413Z,5.60
2022-10-10T21:38:31.356Z,6.35
2022-10-10T21:41:08.951Z,6.15
2022-10-10T21:43:45.269Z,5.13
2022-10-10T21:46:25.120Z,4.88
2022-10-10T21:49:16.837Z,5.25
2022-10-10T21:51:49.059Z,5.47
2022-10-10T21:54:21.191Z,5.13
2022-10-10T21:56:53.164Z,5.03
2022-10-10T21:59:26.552Z,5.65
2022-10-10T22:02:02.758Z,4.80
2022-10-10T22:04:34.879Z,4.75
2022-10-10T22:07:07.057Z,4.45
2022-10-10T22:09:39.134Z,5.30
2022-10-10T22:12:11.399Z,4.90
2022-10-10T22:14:43.643Z,5.25
2022-10-10T22:17:15.650Z,5.28
2022-10-10T22:19:47.875Z,4.60
2022-10-10T22:22:19.902Z,4.68
2022-10-10T22:24:51.970Z,4.90
2022-10-10T22:27:24.126Z,5.35
2022-10-10T22:29:56.299Z,5.35
2022-10-10T22:32:28.627Z,4.85
2022-10-10T22:35:01.096Z,4.68
2022-10-10T22:37:33.249Z,5.28
2022-10-10T22:40:07.639Z,4.80
2022-10-10T22:42:40.519Z,5.50
2022-10-10T22:45:12.652Z,5.53
2022-10-10T22:47:45.069Z,4.55
2022-10-10T22:50:18.425Z,6.03
2022-10-10T22:52:50.674Z,5.03
2022-10-10T22:55:23.761Z,5.57
2022-10-10T22:57:56.910Z,5.18
2022-10-10T23:00:29.304Z,5.10
2022-10-10T23:03:01.511Z,5.60
2022-10-10T23:05:33.709Z,5.05
2022-10-10T23:08:07.118Z,5.40
2022-10-10T23:10:39.612Z,5.35
2022-10-10T23:13:12.425Z,5.22
2022-10-10T23:15:44.917Z,5.55
2022-10-10T23:18:17.311Z,5.30
2022-10-10T23:20:51.754Z,5.22
2022-10-10T23:23:23.990Z,5.80
2022-10-10T23:25:56.574Z,5.85
2022-10-10T23:28:28.745Z,5.35
2022-10-10T23:31:02.948Z,4.95
2022-10-10T23:33:40.722Z,5.70
2022-10-10T23:36:14.556Z,4.90
2022-10-10T23:38:46.794Z,5.55
2022-10-10T23:41:18.783Z,5.03
2022-10-10T23:43:51.175Z,5.43
2022-10-10T23:46:24.176Z,4.43
2022-10-10T23:48:56.513Z,5.20
2022-10-10T23:51:29.653Z,5.90
2022-10-10T23:54:01.993Z,4.75
2022-10-10T23:56:34.240Z,5.75
2022-10-10T23:59:07.485Z,5.38
